sensor_id;sensor_type;location;lat;lon;timestamp;P1;durP1;ratioP1;P2;durP2;ratioP2
38196;SDS011;26543;51.976;4.616;2022-10-19T00:01:51;6.45;;;3.10;;
38196;SDS011;26543;51.976;4.616;2022-10-19T00:04:16;9.27;;;3.45;;
38196;SDS011;26543;51.976;4.616;2022-10-19T00:06:45;5.90;;;3.80;;
38196;SDS011;26543;51.976;4.616;2022-10-19T00:09:11;9.68;;;4.07;;
38196;SDS011;26543;51.976;4.616;2022-10-19T00:11:40;7.85;;;4.35;;
38196;SDS011;26543;51.976;4.616;2022-10-19T00:14:10;5.78;;;4.43;;
38196;SDS011;26543;51.976;4.616;2022-10-19T00:16:38;5.25;;;4.28;;
38196;SDS011;26543;51.976;4.616;2022-10-19T00:19:06;9.02;;;5.00;;
38196;SDS011;26543;51.976;4.616;2022-10-19T00:21:35;6.78;;;4.70;;
38196;SDS011;26543;51.976;4.616;2022-10-19T00:24:01;5.10;;;3.78;;
38196;SDS011;26543;51.976;4.616;2022-10-19T00:26:27;6.35;;;4.50;;
38196;SDS011;26543;51.976;4.616;2022-10-19T00:28:53;5.25;;;4.65;;
38196;SDS011;26543;51.976;4.616;2022-10-19T00:31:19;5.38;;;4.25;;
38196;SDS011;26543;51.976;4.616;2022-10-19T00:33:51;7.85;;;5.35;;
38196;SDS011;26543;51.976;4.616;2022-10-19T00:36:21;5.93;;;4.50;;
38196;SDS011;26543;51.976;4.616;2022-10-19T00:38:55;4.88;;;4.03;;
38196;SDS011;26543;51.976;4.616;2022-10-19T00:41:21;5.00;;;4.13;;
38196;SDS011;26543;51.976;4.616;2022-10-19T00:46:26;4.63;;;4.07;;
38196;SDS011;26543;51.976;4.616;2022-10-19T00:48:54;7.60;;;4.47;;
38196;SDS011;26543;51.976;4.616;2022-10-19T00:51:24;8.93;;;4.60;;
38196;SDS011;26543;51.976;4.616;2022-10-19T00:53:51;7.95;;;5.47;;
38196;SDS011;26543;51.976;4.616;2022-10-19T00:56:17;5.65;;;4.38;;
38196;SDS011;26543;51.976;4.616;2022-10-19T00:58:42;8.32;;;4.95;;
38196;SDS011;26543;51.976;4.616;2022-10-19T01:01:10;8.32;;;5.03;;
38196;SDS011;26543;51.976;4.616;2022-10-19T01:03:39;8.73;;;4.88;;
38196;SDS011;26543;51.976;4.616;2022-10-19T01:06:05;9.00;;;5.40;;
38196;SDS011;26543;51.976;4.616;2022-10-19T01:08:31;8.30;;;5.07;;
38196;SDS011;26543;51.976;4.616;2022-10-19T01:14:25;5.18;;;4.15;;
38196;SDS011;26543;51.976;4.616;2022-10-19T01:20:11;9.45;;;5.60;;
38196;SDS011;26543;51.976;4.616;2022-10-19T01:31:33;6.30;;;5.03;;
38196;SDS011;26543;51.976;4.616;2022-10-19T01:39:41;5.78;;;4.50;;
38196;SDS011;26543;51.976;4.616;2022-10-19T01:50:27;6.70;;;4.72;;
38196;SDS011;26543;51.976;4.616;2022-10-19T01:52:59;14.43;;;5.65;;
38196;SDS011;26543;51.976;4.616;2022-10-19T01:55:28;8.52;;;4.70;;
38196;SDS011;26543;51.976;4.616;2022-10-19T01:57:58;5.60;;;4.63;;
38196;SDS011;26543;51.976;4.616;2022-10-19T02:00:27;6.47;;;4.63;;
38196;SDS011;26543;51.976;4.616;2022-10-19T02:02:55;6.85;;;4.13;;
38196;SDS011;26543;51.976;4.616;2022-10-19T02:05:25;7.70;;;4.15;;
38196;SDS011;26543;51.976;4.616;2022-10-19T02:07:58;7.55;;;4.90;;
38196;SDS011;26543;51.976;4.616;2022-10-19T02:10:26;8.00;;;4.97;;
38196;SDS011;26543;51.976;4.616;2022-10-19T02:12:54;8.60;;;5.35;;
38196;SDS011;26543;51.976;4.616;2022-10-19T02:15:21;6.50;;;4.95;;
38196;SDS011;26543;51.976;4.616;2022-10-19T02:17:50;7.90;;;4.88;;
38196;SDS011;26543;51.976;4.616;2022-10-19T02:20:20;8.43;;;5.28;;
38196;SDS011;26543;51.976;4.616;2022-10-19T02:22:46;5.75;;;4.82;;
38196;SDS011;26543;51.976;4.616;2022-10-19T02:25:12;6.85;;;4.38;;
38196;SDS011;26543;51.976;4.616;2022-10-19T02:27:38;6.28;;;4.45;;
38196;SDS011;26543;51.976;4.616;2022-10-19T02:30:08;5.93;;;4.57;;
38196;SDS011;26543;51.976;4.616;2022-10-19T02:32:36;7.60;;;4.90;;
38196;SDS011;26543;51.976;4.616;2022-10-19T02:35:05;8.57;;;5.15;;
38196;SDS011;26543;51.976;4.616;2022-10-19T02:37:31;5.85;;;4.70;;
38196;SDS011;26543;51.976;4.616;2022-10-19T02:39:57;6.05;;;4.55;;
38196;SDS011;26543;51.976;4.616;2022-10-19T02:42:37;6.72;;;4.70;;
38196;SDS011;26543;51.976;4.616;2022-10-19T02:45:37;6.65;;;4.32;;
38196;SDS011;26543;51.976;4.616;2022-10-19T02:48:12;7.00;;;4.53;;
38196;SDS011;26543;51.976;4.616;2022-10-19T02:50:45;5.38;;;3.80;;
38196;SDS011;26543;51.976;4.616;2022-10-19T02:53:14;9.10;;;4.40;;
38196;SDS011;26543;51.976;4.616;2022-10-19T02:55:40;4.38;;;3.65;;
38196;SDS011;26543;51.976;4.616;2022-10-19T02:58:06;9.10;;;4.00;;
38196;SDS011;26543;51.976;4.616;2022-10-19T03:00:32;5.32;;;3.45;;
38196;SDS011;26543;51.976;4.616;2022-10-19T03:02:57;4.32;;;3.42;;
38196;SDS011;26543;51.976;4.616;2022-10-19T03:05:23;11.35;;;3.83;;
38196;SDS011;26543;51.976;4.616;2022-10-19T03:07:48;5.20;;;3.78;;
38196;SDS011;26543;51.976;4.616;2022-10-19T03:10:14;5.72;;;3.75;;
38196;SDS011;26543;51.976;4.616;2022-10-19T03:12:39;5.50;;;3.60;;
38196;SDS011;26543;51.976;4.616;2022-10-19T03:15:06;4.70;;;3.17;;
38196;SDS011;26543;51.976;4.616;2022-10-19T03:17:32;4.70;;;3.38;;
38196;SDS011;26543;51.976;4.616;2022-10-19T03:19:57;8.23;;;4.75;;
38196;SDS011;26543;51.976;4.616;2022-10-19T03:22:22;6.05;;;2.55;;
38196;SDS011;26543;51.976;4.616;2022-10-19T03:24:48;5.68;;;3.22;;
38196;SDS011;26543;51.976;4.616;2022-10-19T03:27:13;5.32;;;3.25;;
38196;SDS011;26543;51.976;4.616;2022-10-19T03:29:39;4.93;;;3.90;;
38196;SDS011;26543;51.976;4.616;2022-10-19T03:32:04;4.90;;;3.13;;
38196;SDS011;26543;51.976;4.616;2022-10-19T03:34:29;9.18;;;2.97;;
38196;SDS011;26543;51.976;4.616;2022-10-19T03:36:55;3.95;;;2.78;;
38196;SDS011;26543;51.976;4.616;2022-10-19T03:39:23;7.05;;;3.67;;
38196;SDS011;26543;51.976;4.616;2022-10-19T03:41:49;6.75;;;4.18;;
38196;SDS011;26543;51.976;4.616;2022-10-19T03:44:15;7.40;;;3.50;;
38196;SDS011;26543;51.976;4.616;2022-10-19T03:46:40;5.97;;;3.25;;
38196;SDS011;26543;51.976;4.616;2022-10-19T03:49:06;6.55;;;3.38;;
38196;SDS011;26543;51.976;4.616;2022-10-19T03:51:32;3.85;;;3.20;;
38196;SDS011;26543;51.976;4.616;2022-10-19T03:54:06;5.97;;;3.40;;
38196;SDS011;26543;51.976;4.616;2022-10-19T03:56:35;4.63;;;3.45;;
38196;SDS011;26543;51.976;4.616;2022-10-19T03:59:02;4.40;;;2.80;;
38196;SDS011;26543;51.976;4.616;2022-10-19T04:01:32;5.05;;;3.20;;
38196;SDS011;26543;51.976;4.616;2022-10-19T04:04:01;5.70;;;3.67;;
38196;SDS011;26543;51.976;4.616;2022-10-19T04:06:32;4.10;;;2.88;;
38196;SDS011;26543;51.976;4.616;2022-10-19T04:08:59;6.15;;;3.30;;
38196;SDS011;26543;51.976;4.616;2022-10-19T04:11:26;3.70;;;2.33;;
38196;SDS011;26543;51.976;4.616;2022-10-19T04:13:54;5.35;;;3.08;;
38196;SDS011;26543;51.976;4.616;2022-10-19T04:16:20;5.38;;;3.45;;
38196;SDS011;26543;51.976;4.616;2022-10-19T04:18:47;7.55;;;2.90;;
38196;SDS011;26543;51.976;4.616;2022-10-19T04:21:23;5.32;;;3.38;;
38196;SDS011;26543;51.976;4.616;2022-10-19T04:23:49;5.75;;;3.35;;
38196;SDS011;26543;51.976;4.616;2022-10-19T04:26:15;6.00;;;3.10;;
38196;SDS011;26543;51.976;4.616;2022-10-19T04:28:41;3.50;;;2.80;;
38196;SDS011;26543;51.976;4.616;2022-10-19T04:31:06;4.53;;;2.88;;
38196;SDS011;26543;51.976;4.616;2022-10-19T04:33:32;10.00;;;3.55;;
38196;SDS011;26543;51.976;4.616;2022-10-19T04:36:01;4.63;;;2.97;;
38196;SDS011;26543;51.976;4.616;2022-10-19T04:38:29;5.70;;;2.85;;
38196;SDS011;26543;51.976;4.616;2022-10-19T04:40:59;5.05;;;3.30;;
38196;SDS011;26543;51.976;4.616;2022-10-19T04:43:27;4.15;;;3.25;;
38196;SDS011;26543;51.976;4.616;2022-10-19T04:45:53;4.70;;;2.47;;
38196;SDS011;26543;51.976;4.616;2022-10-19T04:48:18;5.25;;;2.67;;
38196;SDS011;26543;51.976;4.616;2022-10-19T04:50:44;3.67;;;2.35;;
38196;SDS011;26543;51.976;4.616;2022-10-19T04:53:09;3.92;;;2.70;;
38196;SDS011;26543;51.976;4.616;2022-10-19T04:55:38;3.05;;;2.28;;
38196;SDS011;26543;51.976;4.616;2022-10-19T04:58:04;7.70;;;2.78;;
38196;SDS011;26543;51.976;4.616;2022-10-19T05:00:30;3.35;;;2.50;;
38196;SDS011;26543;51.976;4.616;2022-10-19T05:02:55;3.40;;;2.22;;
38196;SDS011;26543;51.976;4.616;2022-10-19T05:05:21;4.03;;;2.28;;
38196;SDS011;26543;51.976;4.616;2022-10-19T05:07:47;4.40;;;2.22;;
38196;SDS011;26543;51.976;4.616;2022-10-19T05:10:12;4.70;;;2.50;;
38196;SDS011;26543;51.976;4.616;2022-10-19T05:12:38;2.92;;;2.25;;
38196;SDS011;26543;51.976;4.616;2022-10-19T05:15:06;3.17;;;2.53;;
38196;SDS011;26543;51.976;4.616;2022-10-19T05:17:32;4.20;;;2.55;;
38196;SDS011;26543;51.976;4.616;2022-10-19T05:19:57;3.92;;;2.45;;
38196;SDS011;26543;51.976;4.616;2022-10-19T05:22:23;3.33;;;2.50;;
38196;SDS011;26543;51.976;4.616;2022-10-19T05:24:49;6.90;;;2.58;;
38196;SDS011;26543;51.976;4.616;2022-10-19T05:27:14;4.22;;;2.65;;
38196;SDS011;26543;51.976;4.616;2022-10-19T05:29:39;4.82;;;2.70;;
38196;SDS011;26543;51.976;4.616;2022-10-19T05:32:05;3.00;;;2.47;;
38196;SDS011;26543;51.976;4.616;2022-10-19T05:34:30;5.25;;;3.63;;
38196;SDS011;26543;51.976;4.616;2022-10-19T05:36:55;3.42;;;2.78;;
38196;SDS011;26543;51.976;4.616;2022-10-19T05:39:21;6.05;;;2.72;;
38196;SDS011;26543;51.976;4.616;2022-10-19T05:41:47;6.45;;;3.20;;
38196;SDS011;26543;51.976;4.616;2022-10-19T05:44:13;3.85;;;2.47;;
38196;SDS011;26543;51.976;4.616;2022-10-19T05:46:43;3.72;;;2.75;;
38196;SDS011;26543;51.976;4.616;2022-10-19T05:49:12;4.05;;;3.08;;
38196;SDS011;26543;51.976;4.616;2022-10-19T05:51:38;4.60;;;3.03;;
38196;SDS011;26543;51.976;4.616;2022-10-19T05:54:07;3.28;;;2.30;;
38196;SDS011;26543;51.976;4.616;2022-10-19T05:56:34;3.00;;;2.30;;
38196;SDS011;26543;51.976;4.616;2022-10-19T05:59:04;4.05;;;2.70;;
38196;SDS011;26543;51.976;4.616;2022-10-19T06:01:31;4.20;;;2.40;;
38196;SDS011;26543;51.976;4.616;2022-10-19T06:03:58;3.20;;;2.20;;
38196;SDS011;26543;51.976;4.616;2022-10-19T06:06:24;7.65;;;2.78;;
38196;SDS011;26543;51.976;4.616;2022-10-19T06:08:51;6.60;;;2.67;;
38196;SDS011;26543;51.976;4.616;2022-10-19T06:11:21;5.03;;;2.95;;
38196;SDS011;26543;51.976;4.616;2022-10-19T06:13:49;5.43;;;2.10;;
38196;SDS011;26543;51.976;4.616;2022-10-19T06:16:17;6.13;;;2.90;;
38196;SDS011;26543;51.976;4.616;2022-10-19T06:18:43;4.20;;;2.33;;
38196;SDS011;26543;51.976;4.616;2022-10-19T06:21:14;4.63;;;2.40;;
38196;SDS011;26543;51.976;4.616;2022-10-19T06:23:40;6.70;;;2.72;;
38196;SDS011;26543;51.976;4.616;2022-10-19T06:26:08;8.60;;;2.97;;
38196;SDS011;26543;51.976;4.616;2022-10-19T06:28:38;3.75;;;2.78;;
38196;SDS011;26543;51.976;4.616;2022-10-19T06:31:05;4.00;;;2.67;;
38196;SDS011;26543;51.976;4.616;2022-10-19T06:33:31;2.83;;;1.98;;
38196;SDS011;26543;51.976;4.616;2022-10-19T06:38:37;4.18;;;2.97;;
38196;SDS011;26543;51.976;4.616;2022-10-19T06:41:06;3.20;;;2.42;;
38196;SDS011;26543;51.976;4.616;2022-10-19T06:43:37;4.38;;;2.42;;
38196;SDS011;26543;51.976;4.616;2022-10-19T06:46:06;4.70;;;2.75;;
38196;SDS011;26543;51.976;4.616;2022-10-19T06:48:35;4.50;;;2.95;;
38196;SDS011;26543;51.976;4.616;2022-10-19T06:51:02;3.47;;;2.50;;
38196;SDS011;26543;51.976;4.616;2022-10-19T06:53:29;6.20;;;2.88;;
38196;SDS011;26543;51.976;4.616;2022-10-19T06:56:02;6.13;;;2.97;;
38196;SDS011;26543;51.976;4.616;2022-10-19T06:58:29;6.38;;;2.40;;
38196;SDS011;26543;51.976;4.616;2022-10-19T07:00:55;8.05;;;2.95;;
38196;SDS011;26543;51.976;4.616;2022-10-19T07:03:22;5.57;;;2.40;;
38196;SDS011;26543;51.976;4.616;2022-10-19T07:06:07;5.93;;;2.80;;
38196;SDS011;26543;51.976;4.616;2022-10-19T07:08:34;5.95;;;2.92;;
38196;SDS011;26543;51.976;4.616;2022-10-19T07:11:02;7.50;;;2.55;;
38196;SDS011;26543;51.976;4.616;2022-10-19T07:13:30;5.00;;;2.80;;
38196;SDS011;26543;51.976;4.616;2022-10-19T07:15:56;4.50;;;2.58;;
38196;SDS011;26543;51.976;4.616;2022-10-19T07:18:30;5.35;;;2.67;;
38196;SDS011;26543;51.976;4.616;2022-10-19T07:20:58;4.82;;;2.90;;
38196;SDS011;26543;51.976;4.616;2022-10-19T07:23:26;3.17;;;2.42;;
38196;SDS011;26543;51.976;4.616;2022-10-19T07:25:52;3.03;;;2.08;;
38196;SDS011;26543;51.976;4.616;2022-10-19T07:28:20;4.05;;;2.75;;
38196;SDS011;26543;51.976;4.616;2022-10-19T07:30:46;3.85;;;2.05;;
38196;SDS011;26543;51.976;4.616;2022-10-19T07:33:11;4.25;;;2.40;;
38196;SDS011;26543;51.976;4.616;2022-10-19T07:35:37;4.25;;;3.00;;
38196;SDS011;26543;51.976;4.616;2022-10-19T07:38:02;6.05;;;3.10;;
38196;SDS011;26543;51.976;4.616;2022-10-19T07:40:30;6.70;;;3.30;;
38196;SDS011;26543;51.976;4.616;2022-10-19T07:42:55;4.03;;;2.22;;
38196;SDS011;26543;51.976;4.616;2022-10-19T07:45:21;7.00;;;3.45;;
38196;SDS011;26543;51.976;4.616;2022-10-19T07:47:46;3.35;;;2.05;;
38196;SDS011;26543;51.976;4.616;2022-10-19T07:50:11;5.32;;;2.20;;
38196;SDS011;26543;51.976;4.616;2022-10-19T07:52:37;4.53;;;2.10;;
38196;SDS011;26543;51.976;4.616;2022-10-19T07:55:02;4.53;;;2.70;;
38196;SDS011;26543;51.976;4.616;2022-10-19T07:57:28;4.72;;;2.45;;
38196;SDS011;26543;51.976;4.616;2022-10-19T07:59:53;6.50;;;1.98;;
38196;SDS011;26543;51.976;4.616;2022-10-19T08:02:18;3.28;;;2.10;;
38196;SDS011;26543;51.976;4.616;2022-10-19T08:04:44;4.18;;;2.58;;
38196;SDS011;26543;51.976;4.616;2022-10-19T08:07:10;2.78;;;1.98;;
38196;SDS011;26543;51.976;4.616;2022-10-19T08:09:36;2.88;;;2.15;;
38196;SDS011;26543;51.976;4.616;2022-10-19T08:12:01;4.45;;;2.40;;
38196;SDS011;26543;51.976;4.616;2022-10-19T08:14:28;6.20;;;2.20;;
38196;SDS011;26543;51.976;4.616;2022-10-19T08:16:53;2.88;;;2.05;;
38196;SDS011;26543;51.976;4.616;2022-10-19T08:19:18;5.28;;;2.92;;
38196;SDS011;26543;51.976;4.616;2022-10-19T08:21:45;2.63;;;1.98;;
38196;SDS011;26543;51.976;4.616;2022-10-19T08:24:14;3.30;;;1.80;;
38196;SDS011;26543;51.976;4.616;2022-10-19T08:26:44;9.73;;;2.63;;
38196;SDS011;26543;51.976;4.616;2022-10-19T08:29:13;10.85;;;2.25;;
38196;SDS011;26543;51.976;4.616;2022-10-19T08:31:41;2.00;;;1.45;;
38196;SDS011;26543;51.976;4.616;2022-10-19T08:34:08;3.72;;;2.40;;
38196;SDS011;26543;51.976;4.616;2022-10-19T08:36:34;3.33;;;1.98;;
38196;SDS011;26543;51.976;4.616;2022-10-19T08:39:01;1.65;;;1.17;;
38196;SDS011;26543;51.976;4.616;2022-10-19T08:41:33;2.63;;;1.48;;
38196;SDS011;26543;51.976;4.616;2022-10-19T08:44:05;3.45;;;1.77;;
38196;SDS011;26543;51.976;4.616;2022-10-19T08:49:20;3.10;;;1.15;;
38196;SDS011;26543;51.976;4.616;2022-10-19T08:51:52;4.38;;;1.77;;
38196;SDS011;26543;51.976;4.616;2022-10-19T08:54:21;5.28;;;1.30;;
38196;SDS011;26543;51.976;4.616;2022-10-19T08:57:00;2.42;;;1.17;;
38196;SDS011;26543;51.976;4.616;2022-10-19T08:59:51;3.10;;;1.38;;
38196;SDS011;26543;51.976;4.616;2022-10-19T09:02:22;2.92;;;1.40;;
38196;SDS011;26543;51.976;4.616;2022-10-19T09:05:20;1.00;;;0.70;;
38196;SDS011;26543;51.976;4.616;2022-10-19T09:07:46;1.98;;;1.13;;
38196;SDS011;26543;51.976;4.616;2022-10-19T09:10:21;1.80;;;0.85;;
38196;SDS011;26543;51.976;4.616;2022-10-19T09:12:59;3.17;;;0.90;;
38196;SDS011;26543;51.976;4.616;2022-10-19T09:15:40;1.38;;;0.90;;
38196;SDS011;26543;51.976;4.616;2022-10-19T09:18:26;1.48;;;0.90;;
38196;SDS011;26543;51.976;4.616;2022-10-19T09:26:14;5.65;;;1.27;;
38196;SDS011;26543;51.976;4.616;2022-10-19T09:31:14;3.27;;;1.43;;
38196;SDS011;26543;51.976;4.616;2022-10-19T09:33:48;0.93;;;0.77;;
38196;SDS011;26543;51.976;4.616;2022-10-19T09:36:19;1.67;;;0.93;;
38196;SDS011;26543;51.976;4.616;2022-10-19T09:38:47;2.55;;;0.98;;
38196;SDS011;26543;51.976;4.616;2022-10-19T09:41:14;3.58;;;1.13;;
38196;SDS011;26543;51.976;4.616;2022-10-19T09:43:43;3.53;;;0.80;;
38196;SDS011;26543;51.976;4.616;2022-10-19T09:46:16;0.98;;;0.57;;
38196;SDS011;26543;51.976;4.616;2022-10-19T09:48:50;2.28;;;0.65;;
38196;SDS011;26543;51.976;4.616;2022-10-19T09:51:17;2.30;;;0.80;;
38196;SDS011;26543;51.976;4.616;2022-10-19T09:53:44;1.45;;;0.85;;
38196;SDS011;26543;51.976;4.616;2022-10-19T09:56:20;0.95;;;0.52;;
38196;SDS011;26543;51.976;4.616;2022-10-19T09:58:48;0.77;;;0.40;;
38196;SDS011;26543;51.976;4.616;2022-10-19T10:01:28;1.83;;;0.98;;
38196;SDS011;26543;51.976;4.616;2022-10-19T10:04:08;2.80;;;0.80;;
38196;SDS011;26543;51.976;4.616;2022-10-19T10:06:34;2.28;;;0.80;;
38196;SDS011;26543;51.976;4.616;2022-10-19T10:09:02;3.42;;;0.85;;
38196;SDS011;26543;51.976;4.616;2022-10-19T10:11:32;3.58;;;0.85;;
38196;SDS011;26543;51.976;4.616;2022-10-19T10:14:03;2.85;;;0.82;;
38196;SDS011;26543;51.976;4.616;2022-10-19T10:16:38;1.33;;;0.65;;
38196;SDS011;26543;51.976;4.616;2022-10-19T10:19:11;1.40;;;0.68;;
38196;SDS011;26543;51.976;4.616;2022-10-19T10:21:46;2.40;;;0.75;;
38196;SDS011;26543;51.976;4.616;2022-10-19T10:26:47;2.35;;;0.82;;
38196;SDS011;26543;51.976;4.616;2022-10-19T10:31:46;5.35;;;0.50;;
38196;SDS011;26543;51.976;4.616;2022-10-19T10:34:25;1.02;;;0.40;;
38196;SDS011;26543;51.976;4.616;2022-10-19T10:37:05;1.95;;;0.85;;
38196;SDS011;26543;51.976;4.616;2022-10-19T10:39:41;3.05;;;0.95;;
38196;SDS011;26543;51.976;4.616;2022-10-19T10:42:08;1.30;;;0.77;;
38196;SDS011;26543;51.976;4.616;2022-10-19T10:44:41;2.75;;;1.10;;
38196;SDS011;26543;51.976;4.616;2022-10-19T10:47:13;1.63;;;0.43;;
38196;SDS011;26543;51.976;4.616;2022-10-19T10:49:41;0.65;;;0.30;;
38196;SDS011;26543;51.976;4.616;2022-10-19T10:54:35;1.10;;;0.60;;
38196;SDS011;26543;51.976;4.616;2022-10-19T10:57:08;2.58;;;0.28;;
38196;SDS011;26543;51.976;4.616;2022-10-19T11:02:53;3.10;;;0.52;;
38196;SDS011;26543;51.976;4.616;2022-10-19T11:05:32;1.27;;;0.40;;
38196;SDS011;26543;51.976;4.616;2022-10-19T11:13:55;0.95;;;0.43;;
38196;SDS011;26543;51.976;4.616;2022-10-19T11:16:34;1.67;;;0.40;;
38196;SDS011;26543;51.976;4.616;2022-10-19T11:19:25;2.38;;;0.35;;
38196;SDS011;26543;51.976;4.616;2022-10-19T11:27:30;0.68;;;0.15;;
38196;SDS011;26543;51.976;4.616;2022-10-19T11:30:07;0.35;;;0.10;;
38196;SDS011;26543;51.976;4.616;2022-10-19T11:52:19;0.73;;;0.22;;
38196;SDS011;26543;51.976;4.616;2022-10-19T12:00:25;1.33;;;0.30;;
38196;SDS011;26543;51.976;4.616;2022-10-19T12:09:04;1.38;;;0.35;;
38196;SDS011;26543;51.976;4.616;2022-10-19T12:12:05;2.17;;;0.63;;
38196;SDS011;26543;51.976;4.616;2022-10-19T12:14:32;0.68;;;0.20;;
38196;SDS011;26543;51.976;4.616;2022-10-19T12:17:09;3.67;;;0.40;;
38196;SDS011;26543;51.976;4.616;2022-10-19T12:19:48;1.80;;;0.30;;
38196;SDS011;26543;51.976;4.616;2022-10-19T12:22:20;1.60;;;0.52;;
38196;SDS011;26543;51.976;4.616;2022-10-19T12:24:49;2.53;;;0.40;;
38196;SDS011;26543;51.976;4.616;2022-10-19T12:27:22;1.85;;;0.40;;
38196;SDS011;26543;51.976;4.616;2022-10-19T12:30:07;1.25;;;0.22;;
38196;SDS011;26543;51.976;4.616;2022-10-19T12:32:43;0.75;;;0.20;;
38196;SDS011;26543;51.976;4.616;2022-10-19T12:38:18;0.57;;;0.22;;
38196;SDS011;26543;51.976;4.616;2022-10-19T12:51:53;0.90;;;0.20;;
38196;SDS011;26543;51.976;4.616;2022-10-19T12:54:23;1.02;;;0.40;;
38196;SDS011;26543;51.976;4.616;2022-10-19T12:56:52;0.88;;;0.40;;
38196;SDS011;26543;51.976;4.616;2022-10-19T12:59:21;0.70;;;0.20;;
38196;SDS011;26543;51.976;4.616;2022-10-19T13:01:49;1.20;;;0.30;;
38196;SDS011;26543;51.976;4.616;2022-10-19T13:09:21;2.63;;;0.40;;
38196;SDS011;26543;51.976;4.616;2022-10-19T13:14:47;1.50;;;0.40;;
38196;SDS011;26543;51.976;4.616;2022-10-19T13:22:46;3.40;;;1.05;;
38196;SDS011;26543;51.976;4.616;2022-10-19T13:25:35;0.63;;;0.30;;
38196;SDS011;26543;51.976;4.616;2022-10-19T13:35:46;3.15;;;0.70;;
38196;SDS011;26543;51.976;4.616;2022-10-19T13:43:19;5.43;;;1.00;;
38196;SDS011;26543;51.976;4.616;2022-10-19T13:45:56;2.83;;;0.70;;
38196;SDS011;26543;51.976;4.616;2022-10-19T13:48:48;4.68;;;0.98;;
38196;SDS011;26543;51.976;4.616;2022-10-19T13:51:35;1.98;;;0.77;;
38196;SDS011;26543;51.976;4.616;2022-10-19T13:56:52;3.08;;;0.90;;
38196;SDS011;26543;51.976;4.616;2022-10-19T14:07:58;2.40;;;0.90;;
38196;SDS011;26543;51.976;4.616;2022-10-19T14:10:35;1.58;;;0.73;;
38196;SDS011;26543;51.976;4.616;2022-10-19T14:13:02;2.15;;;0.93;;
38196;SDS011;26543;51.976;4.616;2022-10-19T14:15:31;4.13;;;1.40;;
38196;SDS011;26543;51.976;4.616;2022-10-19T14:17:59;1.08;;;0.52;;
38196;SDS011;26543;51.976;4.616;2022-10-19T14:20:32;2.58;;;0.65;;
38196;SDS011;26543;51.976;4.616;2022-10-19T14:25:59;1.60;;;0.70;;
38196;SDS011;26543;51.976;4.616;2022-10-19T14:28:27;2.40;;;0.95;;
38196;SDS011;26543;51.976;4.616;2022-10-19T14:30:54;1.02;;;0.50;;
38196;SDS011;26543;51.976;4.616;2022-10-19T14:33:20;2.22;;;0.70;;
38196;SDS011;26543;51.976;4.616;2022-10-19T14:35:47;1.02;;;0.65;;
38196;SDS011;26543;51.976;4.616;2022-10-19T14:38:17;2.38;;;0.68;;
38196;SDS011;26543;51.976;4.616;2022-10-19T14:40:55;1.80;;;0.70;;
38196;SDS011;26543;51.976;4.616;2022-10-19T14:43:25;1.38;;;0.60;;
38196;SDS011;26543;51.976;4.616;2022-10-19T14:48:35;1.85;;;0.60;;
38196;SDS011;26543;51.976;4.616;2022-10-19T14:51:26;3.10;;;0.70;;
38196;SDS011;26543;51.976;4.616;2022-10-19T14:53:58;0.63;;;0.50;;
38196;SDS011;26543;51.976;4.616;2022-10-19T14:56:46;3.55;;;0.73;;
38196;SDS011;26543;51.976;4.616;2022-10-19T15:01:59;1.77;;;0.68;;
38196;SDS011;26543;51.976;4.616;2022-10-19T15:04:27;2.63;;;1.10;;
38196;SDS011;26543;51.976;4.616;2022-10-19T15:06:55;1.90;;;0.83;;
38196;SDS011;26543;51.976;4.616;2022-10-19T15:11:51;2.65;;;0.80;;
38196;SDS011;26543;51.976;4.616;2022-10-19T15:14:22;2.92;;;0.88;;
38196;SDS011;26543;51.976;4.616;2022-10-19T15:16:53;5.32;;;1.48;;
38196;SDS011;26543;51.976;4.616;2022-10-19T15:19:27;2.78;;;0.68;;
38196;SDS011;26543;51.976;4.616;2022-10-19T15:24:33;1.42;;;0.65;;
38196;SDS011;26543;51.976;4.616;2022-10-19T15:27:07;5.55;;;1.20;;
38196;SDS011;26543;51.976;4.616;2022-10-19T15:29:56;1.85;;;0.82;;
38196;SDS011;26543;51.976;4.616;2022-10-19T15:32:30;2.53;;;0.73;;
38196;SDS011;26543;51.976;4.616;2022-10-19T15:35:10;0.85;;;0.50;;
38196;SDS011;26543;51.976;4.616;2022-10-19T15:37:42;5.55;;;0.93;;
38196;SDS011;26543;51.976;4.616;2022-10-19T15:40:19;2.17;;;1.00;;
38196;SDS011;26543;51.976;4.616;2022-10-19T15:42:50;1.73;;;0.85;;
38196;SDS011;26543;51.976;4.616;2022-10-19T15:48:14;2.00;;;0.65;;
38196;SDS011;26543;51.976;4.616;2022-10-19T15:50:48;2.78;;;1.10;;
38196;SDS011;26543;51.976;4.616;2022-10-19T15:53:19;3.75;;;1.05;;
38196;SDS011;26543;51.976;4.616;2022-10-19T15:56:03;1.08;;;0.82;;
38196;SDS011;26543;51.976;4.616;2022-10-19T15:58:28;3.88;;;1.17;;
38196;SDS011;26543;51.976;4.616;2022-10-19T16:00:54;2.58;;;1.27;;
38196;SDS011;26543;51.976;4.616;2022-10-19T16:03:20;2.92;;;1.08;;
38196;SDS011;26543;51.976;4.616;2022-10-19T16:05:47;2.75;;;1.10;;
38196;SDS011;26543;51.976;4.616;2022-10-19T16:08:12;3.38;;;1.38;;
38196;SDS011;26543;51.976;4.616;2022-10-19T16:10:39;3.40;;;1.27;;
38196;SDS011;26543;51.976;4.616;2022-10-19T16:13:04;1.58;;;0.80;;
38196;SDS011;26543;51.976;4.616;2022-10-19T16:15:33;4.28;;;1.27;;
38196;SDS011;26543;51.976;4.616;2022-10-19T16:18:04;2.75;;;1.02;;
38196;SDS011;26543;51.976;4.616;2022-10-19T16:20:30;1.50;;;1.00;;
38196;SDS011;26543;51.976;4.616;2022-10-19T16:22:56;1.27;;;0.80;;
38196;SDS011;26543;51.976;4.616;2022-10-19T16:25:21;1.92;;;0.98;;
38196;SDS011;26543;51.976;4.616;2022-10-19T16:27:47;1.80;;;1.13;;
38196;SDS011;26543;51.976;4.616;2022-10-19T16:30:24;2.03;;;0.75;;
38196;SDS011;26543;51.976;4.616;2022-10-19T16:32:53;2.13;;;1.13;;
38196;SDS011;26543;51.976;4.616;2022-10-19T16:35:18;3.13;;;1.17;;
38196;SDS011;26543;51.976;4.616;2022-10-19T16:37:43;1.75;;;0.88;;
38196;SDS011;26543;51.976;4.616;2022-10-19T16:40:09;1.48;;;0.80;;
38196;SDS011;26543;51.976;4.616;2022-10-19T16:42:37;1.70;;;0.80;;
38196;SDS011;26543;51.976;4.616;2022-10-19T16:45:03;4.45;;;1.23;;
38196;SDS011;26543;51.976;4.616;2022-10-19T16:47:28;2.38;;;1.20;;
38196;SDS011;26543;51.976;4.616;2022-10-19T16:49:57;1.40;;;0.80;;
38196;SDS011;26543;51.976;4.616;2022-10-19T16:52:25;2.25;;;1.40;;
38196;SDS011;26543;51.976;4.616;2022-10-19T16:54:52;1.42;;;0.68;;
38196;SDS011;26543;51.976;4.616;2022-10-19T16:57:17;3.17;;;1.02;;
38196;SDS011;26543;51.976;4.616;2022-10-19T16:59:49;2.00;;;0.93;;
38196;SDS011;26543;51.976;4.616;2022-10-19T17:02:16;1.80;;;1.02;;
38196;SDS011;26543;51.976;4.616;2022-10-19T17:04:45;1.80;;;0.90;;
38196;SDS011;26543;51.976;4.616;2022-10-19T17:07:13;0.93;;;0.60;;
38196;SDS011;26543;51.976;4.616;2022-10-19T17:09:42;2.37;;;0.90;;
38196;SDS011;26543;51.976;4.616;2022-10-19T17:12:07;2.60;;;1.10;;
38196;SDS011;26543;51.976;4.616;2022-10-19T17:14:33;1.02;;;0.70;;
38196;SDS011;26543;51.976;4.616;2022-10-19T17:16:59;2.22;;;0.90;;
38196;SDS011;26543;51.976;4.616;2022-10-19T17:19:25;4.25;;;1.25;;
38196;SDS011;26543;51.976;4.616;2022-10-19T17:21:51;1.73;;;0.77;;
38196;SDS011;26543;51.976;4.616;2022-10-19T17:24:19;3.10;;;1.00;;
38196;SDS011;26543;51.976;4.616;2022-10-19T17:26:44;2.03;;;1.17;;
38196;SDS011;26543;51.976;4.616;2022-10-19T17:29:10;1.70;;;0.90;;
38196;SDS011;26543;51.976;4.616;2022-10-19T17:31:36;2.80;;;1.00;;
38196;SDS011;26543;51.976;4.616;2022-10-19T17:34:03;2.25;;;0.80;;
38196;SDS011;26543;51.976;4.616;2022-10-19T17:36:29;1.45;;;0.80;;
38196;SDS011;26543;51.976;4.616;2022-10-19T17:38:57;1.20;;;0.82;;
38196;SDS011;26543;51.976;4.616;2022-10-19T17:41:24;3.40;;;1.52;;
38196;SDS011;26543;51.976;4.616;2022-10-19T17:43:50;1.80;;;0.95;;
38196;SDS011;26543;51.976;4.616;2022-10-19T17:46:17;2.55;;;0.75;;
38196;SDS011;26543;51.976;4.616;2022-10-19T17:48:44;2.55;;;1.02;;